createdAt,value
2018-04-07T00:01:39.275Z,43.10
2018-04-07T00:04:06.875Z,43.10
2018-04-07T00:06:35.223Z,43.20
2018-04-07T00:09:02.856Z,43.20
2018-04-07T00:11:30.458Z,43.10
2018-04-07T00:13:58.111Z,43.20
2018-04-07T00:16:25.749Z,43.30
2018-04-07T00:18:53.439Z,43.20
2018-04-07T00:21:21.037Z,43.40
2018-04-07T00:23:49.547Z,43.60
2018-04-07T00:26:17.130Z,43.50
2018-04-07T00:28:44.720Z,44.30
2018-04-07T00:31:12.341Z,43.90
2018-04-07T00:33:39.940Z,44.30
2018-04-07T00:36:07.550Z,44.20
2018-04-07T00:38:35.186Z,44.40
2018-04-07T00:41:03.559Z,44.50
2018-04-07T00:43:31.927Z,44.70
2018-04-07T00:46:01.298Z,44.80
2018-04-07T00:48:28.906Z,44.80
2018-04-07T00:50:57.274Z,44.90
2018-04-07T00:53:25.673Z,44.80
2018-04-07T00:55:53.272Z,44.80
2018-04-07T00:58:20.891Z,45.00
2018-04-07T01:00:48.527Z,45.00
2018-04-07T01:03:16.132Z,45.10
2018-04-07T01:05:43.713Z,44.80
2018-04-07T01:08:11.747Z,44.80
2018-04-07T01:10:39.332Z,44.90
2018-04-07T01:13:06.966Z,45.00
2018-04-07T01:15:34.552Z,45.10
2018-04-07T01:18:02.148Z,45.20
2018-04-07T01:20:30.558Z,45.40
2018-04-07T01:22:58.151Z,45.40
2018-04-07T01:25:25.732Z,45.40
2018-04-07T01:27:53.373Z,45.30
2018-04-07T01:30:20.956Z,45.30
2018-04-07T01:32:48.574Z,45.40
2018-04-07T01:35:16.187Z,45.50
2018-04-07T01:37:43.814Z,45.50
2018-04-07T01:40:11.399Z,46.20
2018-04-07T01:42:39.106Z,45.60
2018-04-07T01:45:07.308Z,45.70
2018-04-07T01:47:34.895Z,45.90
2018-04-07T01:50:02.532Z,45.90
2018-04-07T01:52:30.170Z,46.00
2018-04-07T01:54:57.756Z,46.10
2018-04-07T01:57:25.359Z,46.20
2018-04-07T01:59:53.714Z,46.40
2018-04-07T02:02:21.330Z,46.40
2018-04-07T02:04:48.914Z,46.50
2018-04-07T02:07:16.507Z,46.50
2018-04-07T02:09:44.909Z,46.80
2018-04-07T02:12:12.512Z,46.80
2018-04-07T02:14:40.099Z,46.90
2018-04-07T02:17:07.712Z,46.80
2018-04-07T02:19:35.346Z,47.00
2018-04-07T02:22:02.942Z,47.20
2018-04-07T02:24:30.526Z,47.20
2018-04-07T02:26:58.156Z,47.30
2018-04-07T02:29:25.782Z,47.50
2018-04-07T02:31:53.382Z,47.60
2018-04-07T02:34:20.966Z,47.70
2018-04-07T02:36:48.610Z,47.90
2018-04-07T02:39:16.208Z,47.90
2018-04-07T02:41:44.580Z,48.00
2018-04-07T02:44:12.967Z,48.20
2018-04-07T02:46:42.042Z,48.20
2018-04-07T02:49:10.394Z,48.00
2018-04-07T02:51:38.021Z,48.00
2018-04-07T02:54:05.610Z,48.10
2018-04-07T02:56:33.255Z,47.90
2018-04-07T02:59:00.887Z,48.00
2018-04-07T03:01:29.247Z,48.00
2018-04-07T03:03:57.627Z,48.70
2018-04-07T03:06:25.211Z,48.10
2018-04-07T03:08:52.819Z,48.10
2018-04-07T03:11:20.442Z,48.20
2018-04-07T03:13:48.117Z,48.20
2018-04-07T03:16:15.706Z,48.80
2018-04-07T03:18:43.322Z,48.40
2018-04-07T03:21:10.922Z,48.60
2018-04-07T03:23:38.514Z,48.50
2018-04-07T03:26:07.282Z,48.40
2018-04-07T03:28:34.935Z,48.40
2018-04-07T03:31:04.751Z,48.30
2018-04-07T03:33:32.380Z,48.30
2018-04-07T03:36:00.036Z,48.20
2018-04-07T03:38:27.684Z,48.00
2018-04-07T03:40:55.321Z,48.10
2018-04-07T03:43:23.712Z,47.90
2018-04-07T03:45:51.334Z,47.90
2018-04-07T03:48:18.926Z,47.90
2018-04-07T03:50:46.528Z,48.00
2018-04-07T03:53:14.263Z,48.00
2018-04-07T03:55:41.958Z,48.60
2018-04-07T03:58:09.574Z,48.10
2018-04-07T04:00:37.230Z,48.00
2018-04-07T04:03:05.752Z,48.20
2018-04-07T04:05:33.398Z,48.10
2018-04-07T04:08:01.370Z,48.20
2018-04-07T04:10:29.083Z,48.10
2018-04-07T04:12:57.620Z,48.10
2018-04-07T04:15:25.280Z,48.00
2018-04-07T04:17:52.946Z,48.10
2018-04-07T04:20:20.608Z,48.00
2018-04-07T04:22:48.263Z,47.90
2018-04-07T04:25:16.026Z,47.90
2018-04-07T04:27:43.665Z,47.80
2018-04-07T04:30:11.279Z,47.60
2018-04-07T04:32:40.374Z,47.50
2018-04-07T04:35:08.806Z,47.50
2018-04-07T04:37:36.396Z,47.40
2018-04-07T04:40:04.081Z,47.20
2018-04-07T04:42:32.529Z,47.30
2018-04-07T04:45:00.139Z,47.30
2018-04-07T04:47:28.507Z,47.30
2018-04-07T04:49:56.927Z,47.50
2018-04-07T04:52:24.516Z,47.40
2018-04-07T04:54:52.143Z,47.40
2018-04-07T04:57:19.895Z,47.30
2018-04-07T04:59:47.533Z,47.10
2018-04-07T05:02:16.667Z,47.20
2018-04-07T05:04:44.547Z,47.10
2018-04-07T05:07:12.159Z,47.10
2018-04-07T05:09:40.574Z,46.70
2018-04-07T05:12:08.310Z,46.70
2018-04-07T05:14:35.903Z,46.60
2018-04-07T05:17:03.702Z,46.60
2018-04-07T05:19:31.803Z,46.70
2018-04-07T05:22:00.372Z,46.30
2018-04-07T05:24:28.843Z,45.90
2018-04-07T05:26:57.303Z,45.80
2018-04-07T05:29:25.659Z,45.80
2018-04-07T05:31:53.358Z,45.90
2018-04-07T05:34:21.732Z,45.30
2018-04-07T05:36:50.313Z,45.30
2018-04-07T05:39:17.966Z,45.20
2018-04-07T05:41:45.709Z,45.20
2018-04-07T05:44:13.406Z,44.80
2018-04-07T05:46:41.883Z,44.80
2018-04-07T05:49:09.543Z,44.80
2018-04-07T05:51:37.156Z,44.60
2018-04-07T05:54:04.769Z,44.30
2018-04-07T05:56:33.121Z,43.60
2018-04-07T05:59:00.714Z,43.60
2018-04-07T06:01:29.124Z,43.40
2018-04-07T06:03:56.727Z,43.30
2018-04-07T06:06:24.316Z,43.10
2018-04-07T06:08:52.707Z,42.80
2018-04-07T06:11:20.306Z,42.80
2018-04-07T06:13:47.942Z,42.60
2018-04-07T06:16:15.542Z,42.50
2018-04-07T06:18:43.206Z,42.10
2018-04-07T06:21:10.846Z,42.00
2018-04-07T06:23:38.445Z,41.80
2018-04-07T06:26:06.820Z,41.70
2018-04-07T06:28:35.210Z,41.80
2018-04-07T06:31:03.586Z,41.40
2018-04-07T06:33:31.946Z,41.00
2018-04-07T06:35:59.627Z,41.00
2018-04-07T06:38:27.970Z,40.50
2018-04-07T06:40:55.551Z,40.50
2018-04-07T06:43:23.930Z,40.50
2018-04-07T06:45:52.330Z,40.30
2018-04-07T06:48:19.922Z,40.30
2018-04-07T06:50:47.655Z,40.20
2018-04-07T06:53:15.263Z,39.90
2018-04-07T06:55:42.850Z,40.00
2018-04-07T06:58:11.235Z,39.90
2018-04-07T07:00:39.648Z,39.80
2018-04-07T07:03:08.011Z,39.70
2018-04-07T07:05:35.592Z,39.70
2018-04-07T07:08:03.947Z,39.50
2018-04-07T07:10:31.706Z,39.40
2018-04-07T07:12:59.944Z,39.00
2018-04-07T07:15:27.529Z,38.80
2018-04-07T07:17:55.913Z,38.60
2018-04-07T07:20:24.310Z,38.20
2018-04-07T07:22:51.930Z,38.30
2018-04-07T07:25:20.302Z,37.50
2018-04-07T07:27:47.910Z,37.40
2018-04-07T07:30:15.571Z,37.40
2018-04-07T07:32:43.188Z,36.90
2018-04-07T07:35:10.776Z,35.60
2018-04-07T07:37:38.437Z,35.90
2018-04-07T07:40:06.025Z,34.60
2018-04-07T07:42:33.629Z,34.40
2018-04-07T07:45:02.062Z,33.90
2018-04-07T07:47:29.701Z,33.80
2018-04-07T07:49:57.384Z,33.90
2018-04-07T07:52:25.016Z,32.50
2018-04-07T07:54:52.610Z,32.40
2018-04-07T07:57:20.241Z,31.70
2018-04-07T07:59:47.883Z,31.80
2018-04-07T08:02:16.382Z,31.50
2018-04-07T08:04:43.970Z,31.50
2018-04-07T08:07:11.565Z,30.60
2018-04-07T08:09:39.954Z,30.90
2018-04-07T08:12:07.597Z,30.80
2018-04-07T08:14:35.191Z,30.00
2018-04-07T08:17:02.914Z,30.10
2018-04-07T08:19:30.546Z,30.00
2018-04-07T08:21:58.135Z,29.90
2018-04-07T08:24:25.748Z,29.90
2018-04-07T08:26:53.389Z,30.00
2018-04-07T08:29:21.734Z,28.80
2018-04-07T08:31:49.364Z,28.80
2018-04-07T08:34:16.978Z,28.50
2018-04-07T08:36:45.332Z,28.90
2018-04-07T08:39:12.989Z,29.30
2018-04-07T08:41:40.598Z,28.10
2018-04-07T08:44:08.182Z,28.20
2018-04-07T08:46:35.864Z,28.10
2018-04-07T08:49:03.505Z,28.30
2018-04-07T08:51:31.094Z,28.30
2018-04-07T08:53:58.734Z,28.20
2018-04-07T08:56:26.363Z,28.10
2018-04-07T08:58:54.024Z,27.70
2018-04-07T09:01:21.642Z,28.00
2018-04-07T09:03:49.240Z,27.60
2018-04-07T09:06:16.829Z,27.80
2018-04-07T09:08:44.519Z,27.80
2018-04-07T09:11:12.139Z,27.90
2018-04-07T09:13:40.347Z,27.90
2018-04-07T09:16:08.029Z,27.40
2018-04-07T09:18:37.362Z,27.20
2018-04-07T09:21:04.958Z,27.20
2018-04-07T09:23:33.678Z,27.00
2018-04-07T09:26:02.090Z,27.20
2018-04-07T09:28:29.931Z,27.20
2018-04-07T09:31:04.165Z,26.80
2018-04-07T09:33:31.803Z,26.80
2018-04-07T09:36:00.162Z,26.80
2018-04-07T09:38:27.794Z,26.70
2018-04-07T09:40:55.414Z,26.60
2018-04-07T09:43:23.287Z,26.70
2018-04-07T09:45:50.921Z,26.90
2018-04-07T09:48:19.306Z,26.10
2018-04-07T09:50:47.654Z,26.40
2018-04-07T09:53:16.181Z,26.30
2018-04-07T09:55:45.440Z,26.30
2018-04-07T09:58:13.090Z,26.10
2018-04-07T10:00:47.850Z,26.00
2018-04-07T10:03:22.170Z,26.00
2018-04-07T10:05:51.156Z,26.00
2018-04-07T10:08:18.878Z,25.90
2018-04-07T10:10:46.486Z,25.80
2018-04-07T10:13:14.848Z,26.00
2018-04-07T10:15:43.290Z,26.00
2018-04-07T10:18:10.920Z,25.90
2018-04-07T10:20:38.525Z,25.80
2018-04-07T10:23:06.263Z,25.60
2018-04-07T10:25:33.871Z,25.50
2018-04-07T10:28:02.862Z,25.70
2018-04-07T10:30:31.280Z,25.40
2018-04-07T10:32:58.896Z,25.50
2018-04-07T10:35:26.518Z,25.50
2018-04-07T10:37:54.170Z,25.30
2018-04-07T10:40:21.824Z,25.30
2018-04-07T10:42:49.458Z,25.80
2018-04-07T10:45:17.813Z,25.60
2018-04-07T10:47:45.498Z,25.60
2018-04-07T10:50:13.087Z,25.60
2018-04-07T10:52:40.756Z,25.60
2018-04-07T10:55:09.197Z,26.20
2018-04-07T10:57:36.835Z,25.70
2018-04-07T11:00:04.453Z,26.10
2018-04-07T11:02:32.135Z,26.50
2018-04-07T11:04:59.746Z,25.80
2018-04-07T11:07:27.349Z,25.70
2018-04-07T11:09:54.970Z,25.80
2018-04-07T11:12:23.351Z,25.90
2018-04-07T11:14:50.945Z,25.70
2018-04-07T11:17:18.621Z,25.90
2018-04-07T11:19:46.208Z,26.10
2018-04-07T11:22:14.582Z,25.50
2018-04-07T11:24:42.990Z,25.50
2018-04-07T11:27:10.621Z,25.50
2018-04-07T11:29:38.968Z,25.80
2018-04-07T11:32:06.591Z,25.80
2018-04-07T11:34:34.882Z,26.20
2018-04-07T11:37:02.519Z,26.00
2018-04-07T11:39:30.987Z,26.20
2018-04-07T11:41:58.586Z,26.10
2018-04-07T11:44:26.612Z,26.10
2018-04-07T11:46:55.405Z,26.40
2018-04-07T11:49:23.775Z,26.30
2018-04-07T11:51:52.180Z,26.70
2018-04-07T11:54:19.771Z,26.70
2018-04-07T11:56:47.408Z,27.30
2018-04-07T11:59:14.998Z,26.70
2018-04-07T12:01:43.675Z,27.00
2018-04-07T12:04:11.420Z,26.70
2018-04-07T12:06:39.302Z,26.80
2018-04-07T12:09:08.286Z,26.70
2018-04-07T12:11:36.027Z,26.40
2018-04-07T12:14:03.653Z,26.50
2018-04-07T12:16:32.102Z,26.40
2018-04-07T12:19:00.079Z,25.90
2018-04-07T12:21:28.477Z,25.90
2018-04-07T12:23:56.923Z,25.90
2018-04-07T12:26:25.304Z,25.60
2018-04-07T12:28:53.138Z,25.60
2018-04-07T12:31:20.894Z,25.10
2018-04-07T12:33:48.566Z,24.90
2018-04-07T12:36:16.187Z,24.40
2018-04-07T12:38:44.560Z,23.70
2018-04-07T12:41:12.220Z,23.60
2018-04-07T12:43:39.844Z,24.30
2018-04-07T12:46:08.246Z,22.60
2018-04-07T12:48:35.937Z,22.50
2018-04-07T12:51:03.558Z,22.30
2018-04-07T12:53:31.230Z,21.90
2018-04-07T12:55:58.855Z,21.70
2018-04-07T12:58:26.457Z,21.30
2018-04-07T13:00:54.091Z,21.10
2018-04-07T13:03:21.689Z,20.90
2018-04-07T13:05:50.092Z,20.50
2018-04-07T13:08:17.740Z,20.50
2018-04-07T13:10:45.396Z,20.20
2018-04-07T13:13:13.099Z,20.00
2018-04-07T13:15:40.691Z,19.90
2018-04-07T13:18:08.346Z,19.50
2018-04-07T13:20:35.982Z,19.50
2018-04-07T13:23:03.626Z,19.40
2018-04-07T13:25:31.244Z,19.10
2018-04-07T13:27:59.641Z,18.60
2018-04-07T13:30:28.089Z,18.60
2018-04-07T13:32:55.676Z,18.60
2018-04-07T13:35:24.058Z,18.40
2018-04-07T13:37:52.509Z,18.40
2018-04-07T13:40:20.108Z,18.40
2018-04-07T13:42:47.732Z,18.00
2018-04-07T13:45:16.186Z,17.60
2018-04-07T13:47:43.797Z,17.50
2018-04-07T13:50:12.273Z,17.20
2018-04-07T13:52:40.691Z,17.00
2018-04-07T13:55:08.893Z,17.00
2018-04-07T13:57:36.506Z,17.20
2018-04-07T14:00:04.854Z,16.80
2018-04-07T14:02:33.310Z,16.30
2018-04-07T14:05:00.914Z,16.20
2018-04-07T14:07:28.578Z,16.50
2018-04-07T14:09:56.781Z,15.90
2018-04-07T14:12:24.401Z,16.00
2018-04-07T14:14:52.089Z,15.80
2018-04-07T14:17:19.930Z,15.90
2018-04-07T14:19:47.625Z,16.00
2018-04-07T14:22:15.251Z,16.20
2018-04-07T14:24:44.076Z,16.40
2018-04-07T14:27:12.318Z,16.40
2018-04-07T14:29:40.696Z,15.80
2018-04-07T14:32:09.066Z,15.60
2018-04-07T14:34:40.628Z,15.50
2018-04-07T14:37:10.387Z,15.40
2018-04-07T14:39:39.501Z,15.30
2018-04-07T14:42:11.231Z,15.20
2018-04-07T14:44:40.352Z,15.40
2018-04-07T14:47:09.255Z,15.60
2018-04-07T14:49:38.892Z,15.80
2018-04-07T14:52:09.186Z,15.70
2018-04-07T14:54:39.612Z,15.80
2018-04-07T14:57:09.734Z,16.10
2018-04-07T14:59:38.950Z,16.50
2018-04-07T15:02:06.590Z,16.00
2018-04-07T15:04:35.012Z,15.90
2018-04-07T15:07:02.726Z,15.90
2018-04-07T15:09:30.449Z,16.20
2018-04-07T15:11:58.899Z,16.60
2018-04-07T15:14:28.018Z,16.40
2018-04-07T15:16:56.579Z,15.90
2018-04-07T15:19:24.167Z,15.80
2018-04-07T15:21:51.760Z,16.10
2018-04-07T15:24:20.175Z,16.20
2018-04-07T15:26:47.783Z,16.20
2018-04-07T15:29:16.149Z,16.20
2018-04-07T15:31:43.784Z,16.20
2018-04-07T15:34:11.385Z,16.50
2018-04-07T15:36:40.057Z,17.10
2018-04-07T15:39:07.805Z,16.50
2018-04-07T15:41:36.246Z,16.00
2018-04-07T15:44:04.687Z,16.20
2018-04-07T15:46:32.325Z,16.20
2018-04-07T15:48:59.954Z,17.00
2018-04-07T15:51:27.595Z,18.10
2018-04-07T15:53:56.002Z,20.70
2018-04-07T15:56:23.591Z,21.10
2018-04-07T15:58:51.201Z,21.50
2018-04-07T16:01:18.802Z,22.40
2018-04-07T16:03:46.386Z,22.90
2018-04-07T16:06:14.025Z,23.20
2018-04-07T16:08:41.638Z,23.70
2018-04-07T16:11:09.997Z,24.30
2018-04-07T16:13:37.666Z,24.30
2018-04-07T16:16:05.310Z,24.40
2018-04-07T16:18:32.953Z,24.80
2018-04-07T16:21:00.583Z,25.00
2018-04-07T16:23:28.175Z,25.10
2018-04-07T16:25:55.757Z,25.20
2018-04-07T16:28:23.395Z,24.90
2018-04-07T16:30:51.130Z,25.00
2018-04-07T16:33:18.718Z,25.00
2018-04-07T16:35:46.322Z,25.30
2018-04-07T16:38:13.973Z,25.60
2018-04-07T16:40:42.330Z,26.00
2018-04-07T16:43:09.934Z,25.90
2018-04-07T16:45:37.580Z,26.00
2018-04-07T16:48:05.951Z,25.80
2018-04-07T16:50:34.302Z,26.10
2018-04-07T16:53:02.272Z,26.10
2018-04-07T16:55:30.491Z,26.00
2018-04-07T16:57:58.130Z,26.30
2018-04-07T17:00:31.643Z,26.90
2018-04-07T17:02:59.476Z,26.80
2018-04-07T17:05:28.638Z,27.30
2018-04-07T17:07:56.268Z,27.30
2018-04-07T17:10:23.963Z,27.50
2018-04-07T17:12:51.663Z,27.70
2018-04-07T17:15:20.033Z,28.00
2018-04-07T17:17:47.623Z,28.00
2018-04-07T17:20:15.271Z,27.80
2018-04-07T17:22:43.681Z,27.70
2018-04-07T17:25:11.307Z,27.70
2018-04-07T17:27:39.739Z,27.80
2018-04-07T17:30:07.374Z,27.70
2018-04-07T17:32:35.596Z,27.80
2018-04-07T17:35:03.233Z,28.00
2018-04-07T17:37:30.866Z,28.10
2018-04-07T17:39:58.470Z,28.20
2018-04-07T17:42:26.145Z,28.20
2018-04-07T17:44:53.821Z,28.30
2018-04-07T17:47:21.590Z,28.40
2018-04-07T17:49:50.129Z,28.70
2018-04-07T17:52:17.749Z,28.60
2018-04-07T17:54:45.366Z,28.80
2018-04-07T17:57:13.031Z,28.90
2018-04-07T17:59:40.638Z,28.90
2018-04-07T18:02:08.314Z,29.00
2018-04-07T18:04:35.972Z,28.90
2018-04-07T18:07:03.692Z,29.00
2018-04-07T18:09:31.473Z,29.10
2018-04-07T18:11:59.880Z,29.20
2018-04-07T18:14:27.762Z,29.10
2018-04-07T18:16:55.466Z,29.30
2018-04-07T18:19:23.844Z,29.30
2018-04-07T18:21:51.574Z,29.30
2018-04-07T18:24:19.965Z,29.50
2018-04-07T18:26:47.691Z,29.40
2018-04-07T18:29:16.085Z,30.10
2018-04-07T18:31:44.527Z,29.80
2018-04-07T18:34:12.202Z,29.80
2018-04-07T18:36:39.838Z,29.90
2018-04-07T18:39:08.196Z,30.00
2018-04-07T18:41:35.893Z,30.00
2018-04-07T18:44:03.483Z,30.20
2018-04-07T18:46:31.090Z,30.20
2018-04-07T18:48:59.723Z,30.40
2018-04-07T18:51:27.362Z,30.30
2018-04-07T18:53:54.956Z,30.60
2018-04-07T18:56:22.657Z,30.80
2018-04-07T18:58:51.025Z,30.90
2018-04-07T19:01:18.668Z,30.90
2018-04-07T19:03:46.291Z,30.30
2018-04-07T19:06:13.954Z,31.00
2018-04-07T19:08:41.574Z,31.20
2018-04-07T19:11:10.016Z,31.40
2018-04-07T19:13:38.521Z,31.40
2018-04-07T19:16:06.145Z,31.40
2018-04-07T19:18:35.817Z,31.50
2018-04-07T19:21:03.428Z,31.50
2018-04-07T19:23:31.277Z,31.60
2018-04-07T19:25:59.035Z,31.90
2018-04-07T19:28:26.810Z,32.00
2018-04-07T19:30:54.855Z,32.20
2018-04-07T19:33:22.518Z,32.30
2018-04-07T19:35:50.130Z,32.60
2018-04-07T19:38:17.792Z,32.80
2018-04-07T19:40:45.523Z,32.90
2018-04-07T19:43:13.330Z,33.50
2018-04-07T19:45:41.765Z,33.50
2018-04-07T19:48:09.360Z,33.50
2018-04-07T19:50:38.029Z,33.80
2018-04-07T19:53:05.689Z,33.80
2018-04-07T19:55:33.357Z,34.10
2018-04-07T19:58:01.351Z,34.30
2018-04-07T20:00:29.766Z,34.70
2018-04-07T20:02:57.467Z,35.30
2018-04-07T20:05:25.328Z,34.70
2018-04-07T20:07:53.104Z,34.80
2018-04-07T20:10:21.506Z,35.50
2018-04-07T20:12:49.880Z,35.10
2018-04-07T20:15:17.534Z,35.00
2018-04-07T20:17:45.944Z,35.50
2018-04-07T20:20:13.568Z,35.50
2018-04-07T20:22:41.970Z,36.00
2018-04-07T20:25:09.571Z,36.00
2018-04-07T20:27:37.939Z,36.30
2018-04-07T20:30:05.569Z,36.50
2018-04-07T20:32:33.392Z,36.70
2018-04-07T20:35:01.830Z,37.10
2018-04-07T20:37:29.459Z,37.20
2018-04-07T20:39:57.892Z,37.60
2018-04-07T20:42:27.219Z,37.60
2018-04-07T20:44:54.827Z,37.90
2018-04-07T20:47:23.437Z,38.10
2018-04-07T20:49:51.151Z,38.20
2018-04-07T20:52:18.802Z,38.40
2018-04-07T20:54:47.298Z,38.80
2018-04-07T20:57:14.991Z,38.80
2018-04-07T20:59:42.630Z,39.00
2018-04-07T21:02:11.009Z,39.20
2018-04-07T21:04:38.690Z,39.40
2018-04-07T21:07:06.407Z,39.60
2018-04-07T21:09:34.026Z,39.70
2018-04-07T21:12:01.885Z,40.00
2018-04-07T21:14:29.513Z,40.30
2018-04-07T21:16:57.254Z,40.40
2018-04-07T21:19:25.755Z,40.80
2018-04-07T21:21:53.359Z,40.70
2018-04-07T21:24:21.059Z,41.00
2018-04-07T21:26:49.435Z,41.40
2018-04-07T21:29:17.865Z,41.50
2018-04-07T21:31:45.477Z,41.50
2018-04-07T21:34:13.897Z,41.80
2018-04-07T21:36:41.526Z,41.80
2018-04-07T21:39:09.893Z,42.20
2018-04-07T21:41:38.283Z,42.20
2018-04-07T21:44:05.885Z,42.20
2018-04-07T21:46:33.485Z,42.40
2018-04-07T21:49:01.140Z,42.50
2018-04-07T21:51:28.875Z,42.60
2018-04-07T21:53:57.227Z,42.80
2018-04-07T21:56:24.875Z,43.00
2018-04-07T21:58:52.660Z,43.40
2018-04-07T22:01:20.339Z,43.50
2018-04-07T22:03:48.028Z,43.60
2018-04-07T22:06:15.662Z,43.90
2018-04-07T22:08:43.290Z,44.20
2018-04-07T22:11:11.052Z,44.30
2018-04-07T22:13:38.782Z,44.60
2018-04-07T22:16:07.238Z,44.70
2018-04-07T22:18:34.919Z,44.60
2018-04-07T22:21:03.300Z,44.90
2018-04-07T22:23:31.681Z,45.10
2018-04-07T22:26:01.269Z,45.20
2018-04-07T22:28:28.903Z,45.20
2018-04-07T22:30:56.659Z,45.70
2018-04-07T22:33:24.310Z,45.60
2018-04-07T22:35:51.910Z,45.70
2018-04-07T22:38:19.560Z,46.10
2018-04-07T22:40:48.253Z,46.30
2018-04-07T22:43:16.870Z,46.70
2018-04-07T22:45:45.287Z,46.80
2018-04-07T22:48:13.049Z,47.40
2018-04-07T22:50:40.649Z,46.70
2018-04-07T22:53:08.323Z,47.00
2018-04-07T22:55:36.786Z,47.00
2018-04-07T22:58:04.407Z,47.00
2018-04-07T23:00:32.095Z,47.10
2018-04-07T23:03:00.427Z,47.30
2018-04-07T23:05:28.043Z,47.40
2018-04-07T23:07:55.666Z,47.50
2018-04-07T23:10:23.332Z,47.70
2018-04-07T23:12:50.973Z,47.90
2018-04-07T23:15:18.626Z,48.30
2018-04-07T23:17:46.372Z,48.70
2018-04-07T23:20:15.462Z,49.10
2018-04-07T23:22:45.028Z,49.20
2018-04-07T23:25:12.609Z,49.20
2018-04-07T23:27:40.258Z,49.40
2018-04-07T23:30:07.882Z,49.60
2018-04-07T23:32:35.481Z,49.60
2018-04-07T23:35:04.629Z,49.90
2018-04-07T23:37:32.346Z,49.90
2018-04-07T23:40:01.913Z,50.10
2018-04-07T23:42:30.320Z,50.40
2018-04-07T23:44:58.738Z,51.00
2018-04-07T23:47:27.325Z,50.90
2018-04-07T23:49:54.947Z,51.00
2018-04-07T23:52:24.083Z,51.50
2018-04-07T23:54:51.730Z,51.50
2018-04-07T23:57:20.110Z,52.10
2018-04-07T23:59:48.554Z,52.30
